createdAt,value
2018-09-14T00:00:15.410Z,3.72
2018-09-14T00:02:44.675Z,4.60
2018-09-14T00:05:13.978Z,3.62
2018-09-14T00:07:43.155Z,3.72
2018-09-14T00:10:12.423Z,4.17
2018-09-14T00:12:41.589Z,4.53
2018-09-14T00:15:10.999Z,5.12
2018-09-14T00:17:40.127Z,5.45
2018-09-14T00:20:09.337Z,4.10
2018-09-14T00:22:38.547Z,3.62
2018-09-14T00:25:08.796Z,3.50
2018-09-14T00:27:38.041Z,4.28
2018-09-14T00:30:07.276Z,4.20
2018-09-14T00:32:36.490Z,3.40
2018-09-14T00:35:06.992Z,3.60
2018-09-14T00:37:36.238Z,3.98
2018-09-14T00:40:05.627Z,3.80
2018-09-14T00:42:34.855Z,5.28
2018-09-14T00:45:04.295Z,3.45
2018-09-14T00:47:33.530Z,5.50
2018-09-14T00:50:02.717Z,4.62
2018-09-14T00:52:31.921Z,4.83
2018-09-14T00:55:01.206Z,4.83
2018-09-14T00:57:30.394Z,5.05
2018-09-14T00:59:59.604Z,4.28
2018-09-14T01:02:28.774Z,5.08
2018-09-14T01:04:59.142Z,4.65
2018-09-14T01:07:28.328Z,6.30
2018-09-14T01:09:57.540Z,5.22
2018-09-14T01:12:26.765Z,4.85
2018-09-14T01:14:56.091Z,5.33
2018-09-14T01:17:25.295Z,3.98
2018-09-14T01:19:54.495Z,5.50
2018-09-14T01:22:23.635Z,4.33
2018-09-14T01:24:54.657Z,4.03
2018-09-14T01:27:23.839Z,5.42
2018-09-14T01:29:53.004Z,5.03
2018-09-14T01:32:22.154Z,5.20
2018-09-14T01:34:51.525Z,5.72
2018-09-14T01:37:20.685Z,4.78
2018-09-14T01:39:49.891Z,5.35
2018-09-14T01:42:19.062Z,7.10
2018-09-14T01:44:48.342Z,6.90
2018-09-14T01:47:17.623Z,7.60
2018-09-14T01:49:46.799Z,11.85
2018-09-14T01:52:15.975Z,10.63
2018-09-14T01:54:45.340Z,9.45
2018-09-14T01:57:14.504Z,8.13
2018-09-14T01:59:43.658Z,7.28
2018-09-14T02:02:12.836Z,9.50
2018-09-14T02:04:45.634Z,8.15
2018-09-14T02:07:14.804Z,12.33
2018-09-14T02:09:44.027Z,13.70
2018-09-14T02:12:13.215Z,15.65
2018-09-14T02:14:46.897Z,15.68
2018-09-14T02:17:17.431Z,17.23
2018-09-14T02:19:46.613Z,18.80
2018-09-14T02:22:15.771Z,16.50
2018-09-14T02:24:45.137Z,18.90
2018-09-14T02:27:14.339Z,23.20
2018-09-14T02:29:43.543Z,21.52
2018-09-14T02:32:14.065Z,18.57
2018-09-14T02:34:43.375Z,19.37
2018-09-14T02:37:12.568Z,18.75
2018-09-14T02:39:41.748Z,19.75
2018-09-14T02:42:10.939Z,20.40
2018-09-14T02:44:40.159Z,18.92
2018-09-14T02:47:10.042Z,22.50
2018-09-14T02:49:39.232Z,20.40
2018-09-14T02:52:08.450Z,18.15
2018-09-14T02:54:37.930Z,17.60
2018-09-14T02:57:07.120Z,20.43
2018-09-14T02:59:36.295Z,17.82
2018-09-14T03:02:05.566Z,19.25
2018-09-14T03:04:35.955Z,19.90
2018-09-14T03:07:05.229Z,14.83
2018-09-14T03:09:34.401Z,15.83
2018-09-14T03:12:03.591Z,12.20
2018-09-14T03:14:33.882Z,12.45
2018-09-14T03:17:03.048Z,12.50
2018-09-14T03:19:32.287Z,13.60
2018-09-14T03:22:01.488Z,13.15
2018-09-14T03:24:30.880Z,13.72
2018-09-14T03:27:00.105Z,13.93
2018-09-14T03:29:29.303Z,15.58
2018-09-14T03:31:58.627Z,14.53
2018-09-14T03:34:27.995Z,15.00
2018-09-14T03:36:57.969Z,15.25
2018-09-14T03:39:27.279Z,15.55
2018-09-14T03:41:56.442Z,15.60
2018-09-14T03:44:27.061Z,13.65
2018-09-14T03:46:56.265Z,18.00
2018-09-14T03:49:25.529Z,16.57
2018-09-14T03:51:59.346Z,17.70
2018-09-14T03:54:28.576Z,19.07
2018-09-14T03:56:57.951Z,18.10
2018-09-14T03:59:27.105Z,19.17
2018-09-14T04:01:56.343Z,20.82
2018-09-14T04:04:25.546Z,19.62
2018-09-14T04:06:54.740Z,21.50
2018-09-14T04:09:23.917Z,21.82
2018-09-14T04:11:53.204Z,22.32
2018-09-14T04:14:22.560Z,22.35
2018-09-14T04:16:51.743Z,21.62
2018-09-14T04:19:20.953Z,25.20
2018-09-14T04:21:50.269Z,24.40
2018-09-14T04:24:19.553Z,23.15
2018-09-14T04:26:48.732Z,21.75
2018-09-14T04:29:17.997Z,21.40
2018-09-14T04:31:47.155Z,24.35
2018-09-14T04:34:16.523Z,23.92
2018-09-14T04:36:45.724Z,22.35
2018-09-14T04:39:14.927Z,22.15
2018-09-14T04:41:44.173Z,21.85
2018-09-14T04:44:13.591Z,23.40
2018-09-14T04:46:42.780Z,21.05
2018-09-14T04:49:11.997Z,18.92
2018-09-14T04:51:41.203Z,17.92
2018-09-14T04:54:10.637Z,15.30
2018-09-14T04:56:39.907Z,15.23
2018-09-14T04:59:09.090Z,17.10
2018-09-14T05:01:38.292Z,17.32
2018-09-14T05:04:07.752Z,16.73
2018-09-14T05:06:36.918Z,15.65
2018-09-14T05:09:07.418Z,14.60
2018-09-14T05:11:36.768Z,17.05
2018-09-14T05:14:06.094Z,15.72
2018-09-14T05:16:35.309Z,17.17
2018-09-14T05:19:04.619Z,15.72
2018-09-14T05:21:33.839Z,14.85
2018-09-14T05:24:03.901Z,13.62
2018-09-14T05:26:33.086Z,12.40
2018-09-14T05:29:02.331Z,12.68
2018-09-14T05:31:31.580Z,12.25
2018-09-14T05:34:00.870Z,11.88
2018-09-14T05:36:30.057Z,11.65
2018-09-14T05:39:00.008Z,12.18
2018-09-14T05:41:29.469Z,9.85
2018-09-14T05:43:59.056Z,12.07
2018-09-14T05:46:28.470Z,13.72
2018-09-14T05:48:57.983Z,11.60
2018-09-14T05:51:27.441Z,15.20
2018-09-14T05:53:57.153Z,12.90
2018-09-14T05:56:26.703Z,16.50
2018-09-14T05:58:56.087Z,15.40
2018-09-14T06:01:25.441Z,13.48
2018-09-14T06:03:55.863Z,13.30
2018-09-14T06:06:25.162Z,14.87
2018-09-14T06:08:54.776Z,13.58
2018-09-14T06:11:24.167Z,12.15
2018-09-14T06:13:53.574Z,14.30
2018-09-14T06:16:22.928Z,13.20
2018-09-14T06:18:53.084Z,13.98
2018-09-14T06:21:22.857Z,13.45
2018-09-14T06:23:53.234Z,12.82
2018-09-14T06:26:22.744Z,13.65
2018-09-14T06:28:52.767Z,14.65
2018-09-14T06:31:21.948Z,15.18
2018-09-14T06:33:51.499Z,16.70
2018-09-14T06:36:20.782Z,13.13
2018-09-14T06:38:50.555Z,14.78
2018-09-14T06:41:19.974Z,15.70
2018-09-14T06:43:51.428Z,14.73
2018-09-14T06:46:20.863Z,15.60
2018-09-14T06:48:50.436Z,18.43
2018-09-14T06:51:19.910Z,15.03
2018-09-14T06:53:49.448Z,14.90
2018-09-14T06:56:18.917Z,16.25
2018-09-14T06:58:48.273Z,17.45
2018-09-14T07:01:20.627Z,14.73
2018-09-14T07:03:50.912Z,14.07
2018-09-14T07:06:21.524Z,15.98
2018-09-14T07:08:52.261Z,14.65
2018-09-14T07:11:23.236Z,17.10
2018-09-14T07:13:54.078Z,14.60
2018-09-14T07:16:24.230Z,18.87
2018-09-14T07:18:53.431Z,14.83
2018-09-14T07:21:22.666Z,14.68
2018-09-14T07:23:51.995Z,15.85
2018-09-14T07:26:21.281Z,15.78
2018-09-14T07:28:50.785Z,16.35
2018-09-14T07:31:20.235Z,16.17
2018-09-14T07:33:49.676Z,15.68
2018-09-14T07:36:18.921Z,15.95
2018-09-14T07:38:48.309Z,15.30
2018-09-14T07:41:17.687Z,17.00
2018-09-14T07:43:48.014Z,16.12
2018-09-14T07:46:17.224Z,16.50
2018-09-14T07:48:47.143Z,17.27
2018-09-14T07:51:16.496Z,16.95
2018-09-14T07:53:45.818Z,17.27
2018-09-14T07:56:15.142Z,17.45
2018-09-14T07:58:44.439Z,17.17
2018-09-14T08:01:13.709Z,15.23
2018-09-14T08:03:43.439Z,16.95
2018-09-14T08:06:12.877Z,17.80
2018-09-14T08:08:42.121Z,18.92
2018-09-14T08:11:11.350Z,18.42
2018-09-14T08:13:40.581Z,16.00
2018-09-14T08:16:09.822Z,16.55
2018-09-14T08:18:39.068Z,17.02
2018-09-14T08:21:08.383Z,17.20
2018-09-14T08:23:37.649Z,17.65
2018-09-14T08:26:06.994Z,17.42
2018-09-14T08:28:36.304Z,17.52
2018-09-14T08:31:05.671Z,18.23
2018-09-14T08:33:36.059Z,16.60
2018-09-14T08:36:05.421Z,17.37
2018-09-14T08:38:34.714Z,19.53
2018-09-14T08:41:04.504Z,16.57
2018-09-14T08:43:34.106Z,17.03
2018-09-14T08:46:03.409Z,18.45
2018-09-14T08:48:32.660Z,17.03
2018-09-14T08:51:02.200Z,17.87
2018-09-14T08:53:31.621Z,15.87
2018-09-14T08:56:00.879Z,17.43
2018-09-14T08:58:30.415Z,15.47
2018-09-14T09:01:00.260Z,18.70
2018-09-14T09:03:31.205Z,17.00
2018-09-14T09:06:00.473Z,17.70
2018-09-14T09:08:29.934Z,16.57
2018-09-14T09:10:59.355Z,17.30
2018-09-14T09:13:29.796Z,17.82
2018-09-14T09:15:59.464Z,18.55
2018-09-14T09:18:29.170Z,17.37
2018-09-14T09:20:58.565Z,16.82
2018-09-14T09:23:29.100Z,16.57
2018-09-14T09:25:58.525Z,16.87
2018-09-14T09:28:28.747Z,17.73
2018-09-14T09:30:58.899Z,16.43
2018-09-14T09:33:30.391Z,20.50
2018-09-14T09:36:02.981Z,20.60
2018-09-14T09:38:46.121Z,16.70
2018-09-14T09:41:23.742Z,15.43
2018-09-14T09:43:53.433Z,16.03
2018-09-14T09:46:27.389Z,16.67
2018-09-14T09:49:01.543Z,15.37
2018-09-14T09:51:31.521Z,15.27
2018-09-14T09:54:01.357Z,15.93
2018-09-14T09:56:32.696Z,17.70
2018-09-14T09:59:02.104Z,17.30
2018-09-14T10:02:01.845Z,18.80
2018-09-14T10:04:35.538Z,18.57
2018-09-14T10:07:04.792Z,16.93
2018-09-14T10:09:36.091Z,17.90
2018-09-14T10:12:05.626Z,18.30
2018-09-14T10:14:37.191Z,16.73
2018-09-14T10:17:06.519Z,19.97
2018-09-14T10:19:36.220Z,20.37
2018-09-14T10:22:09.865Z,21.30
2018-09-14T10:27:29.848Z,20.95
2018-09-14T10:29:59.207Z,18.80
2018-09-14T10:32:28.501Z,17.87
2018-09-14T10:34:58.900Z,15.90
2018-09-14T10:37:28.128Z,18.27
2018-09-14T10:39:58.277Z,17.87
2018-09-14T10:42:27.624Z,18.57
2018-09-14T10:45:03.319Z,19.60
2018-09-14T10:47:32.740Z,16.60
2018-09-14T10:50:03.328Z,16.93
2018-09-14T10:52:32.723Z,15.43
2018-09-14T10:55:02.201Z,15.60
2018-09-14T10:57:31.599Z,15.30
2018-09-14T11:00:01.060Z,17.27
2018-09-14T11:02:30.519Z,17.17
2018-09-14T11:06:04.596Z,18.43
2018-09-14T11:08:34.082Z,15.53
2018-09-14T11:11:03.492Z,15.93
2018-09-14T11:13:33.049Z,15.00
2018-09-14T11:16:02.494Z,12.23
2018-09-14T11:18:32.985Z,13.27
2018-09-14T11:21:03.426Z,13.47
2018-09-14T11:23:35.727Z,14.00
2018-09-14T11:26:05.385Z,12.17
2018-09-14T11:28:34.864Z,12.43
2018-09-14T11:31:04.268Z,14.57
2018-09-14T11:33:37.563Z,13.57
2018-09-14T11:36:07.191Z,12.07
2018-09-14T11:38:41.387Z,13.00
2018-09-14T11:41:12.148Z,13.30
2018-09-14T11:43:42.483Z,14.10
2018-09-14T11:46:12.349Z,13.73
2018-09-14T11:48:48.297Z,12.53
2018-09-14T11:51:20.206Z,13.40
2018-09-14T11:53:58.801Z,10.97
2018-09-14T11:56:32.376Z,11.90
2018-09-14T11:59:01.887Z,11.80
2018-09-14T12:01:36.556Z,13.17
2018-09-14T12:04:17.756Z,11.90
2018-09-14T12:06:46.980Z,13.20
2018-09-14T12:09:16.441Z,13.40
2018-09-14T12:11:45.907Z,13.00
2018-09-14T12:14:24.025Z,12.47
2018-09-14T12:17:01.140Z,12.93
2018-09-14T12:19:31.169Z,11.87
2018-09-14T12:22:05.545Z,11.70
2018-09-14T12:24:39.235Z,9.63
2018-09-14T12:27:08.862Z,10.20
2018-09-14T12:29:44.880Z,10.40
2018-09-14T12:32:15.287Z,10.37
2018-09-14T12:34:44.702Z,9.57
2018-09-14T12:37:14.281Z,8.90
2018-09-14T12:39:46.305Z,10.30
2018-09-14T12:42:17.578Z,8.07
2018-09-14T12:44:52.416Z,6.87
2018-09-14T12:47:28.496Z,6.80
2018-09-14T12:49:59.061Z,5.47
2018-09-14T12:52:34.897Z,4.50
2018-09-14T12:55:12.006Z,5.13
2018-09-14T12:57:41.379Z,5.20
2018-09-14T13:03:28.304Z,4.60
2018-09-14T13:06:08.706Z,5.40
2018-09-14T13:08:58.940Z,4.47
2018-09-14T13:11:34.878Z,4.70
2018-09-14T13:14:25.902Z,3.83
2018-09-14T13:16:59.676Z,3.73
2018-09-14T13:19:31.413Z,4.13
2018-09-14T13:22:14.868Z,3.83
2018-09-14T13:24:56.235Z,3.70
2018-09-14T13:27:30.863Z,4.00
2018-09-14T13:30:00.265Z,4.47
2018-09-14T13:32:30.055Z,3.50
2018-09-14T13:37:55.946Z,3.83
2018-09-14T13:40:27.630Z,4.27
2018-09-14T13:42:57.653Z,2.90
2018-09-14T13:45:27.584Z,3.37
2018-09-14T13:47:57.043Z,3.63
2018-09-14T13:50:26.477Z,2.63
2018-09-14T13:52:56.025Z,2.70
2018-09-14T13:55:25.684Z,3.17
2018-09-14T13:57:55.196Z,3.57
2018-09-14T14:00:24.730Z,3.83
2018-09-14T14:02:55.478Z,3.47
2018-09-14T14:05:25.000Z,2.90
2018-09-14T14:07:57.164Z,3.30
2018-09-14T14:10:31.840Z,3.20
2018-09-14T14:13:02.729Z,3.13
2018-09-14T14:15:32.195Z,2.80
2018-09-14T14:18:02.619Z,3.50
2018-09-14T14:20:32.364Z,3.25
2018-09-14T14:23:07.839Z,4.30
2018-09-14T14:25:43.058Z,3.67
2018-09-14T14:28:12.342Z,3.30
2018-09-14T14:30:41.787Z,3.90
2018-09-14T14:33:22.986Z,3.67
2018-09-14T14:35:58.166Z,4.27
2018-09-14T14:38:27.532Z,3.90
2018-09-14T14:40:56.996Z,3.20
2018-09-14T14:43:26.515Z,3.73
2018-09-14T14:45:56.574Z,4.10
2018-09-14T14:48:25.974Z,3.83
2018-09-14T14:50:55.876Z,3.87
2018-09-14T14:53:25.203Z,3.13
2018-09-14T14:55:54.726Z,3.90
2018-09-14T14:58:24.209Z,4.10
2018-09-14T15:01:01.199Z,2.80
2018-09-14T15:03:49.722Z,3.50
2018-09-14T15:06:22.621Z,4.30
2018-09-14T15:08:52.463Z,3.47
2018-09-14T15:11:21.991Z,3.27
2018-09-14T15:16:47.372Z,3.40
2018-09-14T15:19:16.624Z,3.90
2018-09-14T15:21:46.375Z,4.20
2018-09-14T15:24:18.521Z,4.60
2018-09-14T15:26:47.894Z,5.27
2018-09-14T15:29:17.299Z,4.50
2018-09-14T15:31:47.071Z,4.47
2018-09-14T15:34:17.550Z,4.27
2018-09-14T15:36:46.832Z,4.67
2018-09-14T15:39:16.088Z,5.57
2018-09-14T15:41:45.474Z,6.37
2018-09-14T15:44:15.845Z,6.33
2018-09-14T15:46:45.257Z,6.93
2018-09-14T15:49:14.520Z,8.90
2018-09-14T15:51:44.129Z,9.43
2018-09-14T15:54:15.668Z,10.60
2018-09-14T15:56:45.190Z,11.93
2018-09-14T15:59:14.733Z,11.97
2018-09-14T16:01:44.167Z,12.13
2018-09-14T16:04:19.680Z,11.70
2018-09-14T16:06:49.768Z,13.20
2018-09-14T16:09:26.285Z,12.70
2018-09-14T16:11:56.168Z,11.60
2018-09-14T16:14:27.714Z,14.20
2018-09-14T16:16:57.382Z,13.60
2018-09-14T16:19:27.285Z,14.10
2018-09-14T16:21:57.006Z,12.43
2018-09-14T16:24:27.681Z,13.20
2018-09-14T16:26:57.405Z,14.53
2018-09-14T16:29:27.124Z,14.37
2018-09-14T16:31:57.921Z,14.33
2018-09-14T16:34:30.291Z,13.70
2018-09-14T17:48:25.181Z,12.10
2018-09-14T17:57:23.906Z,13.43
2018-09-14T18:05:54.656Z,13.50
2018-09-14T18:08:23.911Z,10.83
2018-09-14T18:10:53.200Z,10.40
2018-09-14T18:13:26.671Z,11.43
2018-09-14T18:15:55.925Z,12.13
2018-09-14T18:18:25.158Z,10.60
2018-09-14T18:21:01.197Z,10.50
2018-09-14T18:23:47.019Z,10.60
2018-09-14T18:26:18.047Z,11.20
2018-09-14T18:28:52.489Z,9.10
2018-09-14T18:31:22.251Z,11.30
2018-09-14T18:33:54.492Z,12.50
2018-09-14T18:36:23.923Z,13.50
2018-09-14T18:58:15.475Z,15.05
2018-09-14T19:00:45.373Z,11.60
2018-09-14T19:06:02.863Z,12.53
2018-09-14T19:08:38.365Z,12.20
2018-09-14T19:11:09.026Z,11.60
2018-09-14T19:13:38.330Z,10.03
2018-09-14T19:16:08.423Z,11.10
2018-09-14T19:18:38.611Z,12.82
2018-09-14T19:21:07.893Z,9.67
2018-09-14T19:23:38.196Z,9.00
2018-09-14T19:26:07.499Z,10.87
2018-09-14T19:28:36.709Z,9.97
2018-09-14T19:31:06.559Z,9.85
2018-09-14T19:33:35.917Z,9.95
2018-09-14T19:36:05.409Z,11.63
2018-09-14T19:38:34.943Z,10.57
2018-09-14T19:41:04.069Z,11.20
2018-09-14T19:43:33.569Z,10.13
2018-09-14T19:46:03.727Z,9.78
2018-09-14T19:48:33.159Z,11.63
2018-09-14T19:51:02.613Z,9.68
2018-09-14T19:53:33.969Z,10.10
2018-09-14T19:56:03.225Z,10.23
2018-09-14T19:58:32.764Z,10.68
2018-09-14T20:01:02.211Z,10.90
2018-09-14T20:03:35.357Z,10.78
2018-09-14T20:06:04.942Z,11.38
2018-09-14T20:08:34.414Z,10.65
2018-09-14T20:11:03.907Z,13.18
2018-09-14T20:13:34.589Z,10.98
2018-09-14T20:16:04.630Z,12.80
2018-09-14T20:18:34.430Z,11.40
2018-09-14T20:21:04.848Z,12.07
2018-09-14T20:23:34.862Z,11.27
2018-09-14T20:26:04.140Z,11.57
2018-09-14T20:28:33.940Z,11.50
2018-09-14T20:31:03.606Z,11.75
2018-09-14T20:33:34.657Z,11.33
2018-09-14T20:36:03.981Z,10.60
2018-09-14T20:38:33.619Z,9.55
2018-09-14T20:41:03.632Z,10.45
2018-09-14T20:43:36.688Z,9.90
2018-09-14T20:46:06.159Z,10.30
2018-09-14T20:48:36.227Z,9.83
2018-09-14T20:51:07.714Z,12.25
2018-09-14T20:53:39.942Z,11.22
2018-09-14T20:56:10.643Z,12.85
2018-09-14T20:58:40.181Z,10.55
2018-09-14T21:01:09.693Z,12.95
2018-09-14T21:03:40.267Z,10.80
2018-09-14T21:06:10.069Z,10.80
2018-09-14T21:08:40.408Z,10.90
2018-09-14T21:11:09.886Z,10.38
2018-09-14T21:13:45.313Z,10.60
2018-09-14T21:16:16.953Z,10.50
2018-09-14T21:18:50.481Z,10.85
2018-09-14T21:21:21.686Z,10.00
2018-09-14T21:23:54.887Z,11.48
2018-09-14T21:26:24.751Z,10.35
2018-09-14T21:28:58.609Z,9.65
2018-09-14T21:31:31.424Z,10.40
2018-09-14T21:34:06.101Z,9.98
2018-09-14T21:36:35.715Z,11.80
2018-09-14T21:39:18.365Z,11.80
2018-09-14T21:41:49.657Z,10.98
2018-09-14T21:44:22.101Z,11.57
2018-09-14T21:46:51.491Z,10.15
2018-09-14T21:49:22.228Z,11.22
2018-09-14T21:51:51.907Z,9.68
2018-09-14T21:54:22.863Z,9.58
2018-09-14T21:56:52.257Z,9.40
2018-09-14T21:59:21.695Z,11.25
2018-09-14T22:01:50.946Z,10.70
2018-09-14T22:04:23.697Z,9.63
2018-09-14T22:06:53.134Z,10.95
2018-09-14T22:09:22.408Z,10.03
2018-09-14T22:11:52.484Z,11.08
2018-09-14T22:14:26.846Z,10.10
2018-09-14T22:17:00.343Z,11.20
2018-09-14T22:19:30.936Z,10.35
2018-09-14T22:22:01.544Z,11.08
2018-09-14T22:24:31.037Z,10.03
2018-09-14T22:27:00.456Z,10.82
2018-09-14T22:29:30.798Z,9.80
2018-09-14T22:32:00.591Z,11.78
2018-09-14T22:34:30.102Z,10.28
2018-09-14T22:36:59.531Z,11.50
2018-09-14T22:39:29.628Z,10.15
2018-09-14T22:42:00.205Z,9.83
2018-09-14T22:44:29.764Z,10.13
2018-09-14T22:46:59.893Z,11.55
2018-09-14T22:49:29.144Z,11.22
2018-09-14T22:51:58.634Z,12.55
2018-09-14T22:54:28.459Z,10.60
2018-09-14T22:56:57.886Z,10.08
2018-09-14T22:59:27.273Z,10.72
2018-09-14T23:01:56.931Z,9.75
2018-09-14T23:04:26.394Z,9.98
2018-09-14T23:06:55.629Z,8.10
2018-09-14T23:09:25.155Z,10.45
2018-09-14T23:11:54.541Z,10.88
2018-09-14T23:14:29.648Z,11.03
2018-09-14T23:16:59.343Z,10.95
2018-09-14T23:19:29.189Z,12.50
2018-09-14T23:21:58.676Z,10.20
2018-09-14T23:24:28.388Z,11.78
2018-09-14T23:26:57.841Z,11.08
2018-09-14T23:29:27.087Z,11.43
2018-09-14T23:31:56.488Z,10.80
2018-09-14T23:34:26.016Z,11.75
2018-09-14T23:36:55.248Z,10.95
2018-09-14T23:39:24.738Z,10.60
2018-09-14T23:41:54.104Z,11.08
2018-09-14T23:44:23.483Z,11.18
2018-09-14T23:46:52.809Z,10.40
2018-09-14T23:49:22.189Z,11.03
2018-09-14T23:51:51.584Z,11.68
2018-09-14T23:54:21.124Z,11.38
2018-09-14T23:56:50.833Z,12.30
2018-09-14T23:59:20.210Z,11.93
